Terminal Aerodrome Forecast
Issued by NWS

Home | Current Version | Previous Version | Text Only | Print | Product List | Glossary On
Versions: 1 2 3 4 5 6 7 8 9 10 11 12 13
885
FTUS42 KMLB 131120
TAFLEE
TAF
KLEE 131120Z 1312/1412 32008KT P6SM SKC
     FM131800 29006KT P6SM SKC
     FM140100 22004KT P6SM SKC
     FM140800 21003KT P6SM BKN040=

USA.gov is the U.S. government's official web portal to all federal, state and local government web resources and services.